<?xml version="1.0" encoding="UTF-8" ?>
<gpx version="1.1" xmlns:xsi="http://www.w3.org/2001/XMLSchema-instance" 
    xmlns="http://www.topografix.com/GPX/1/1" 
    xsi:schemaLocation="http://www.topografix.com/GPX/1/1 http://www.topografix.com/GPX/1/1/gpx.xsd" 
    creator="Openrunner - https://www.openrunner.com" >	<trk>
						<name>11263524-Balade Verte - Circuit dans la campagne - S2</name>
						<trkseg>
					<trkpt lat="46.783220" lon="5.215350">
						<ele>196</ele>
						<time>2020-05-06T13:05:37Z</time>
					</trkpt>
					<trkpt lat="46.783180" lon="5.215820">
						<ele>197</ele>
						<time>2020-05-06T13:06:20Z</time>
					</trkpt>
					<trkpt lat="46.783180" lon="5.216240">
						<ele>196</ele>
						<time>2020-05-06T13:06:59Z</time>
					</trkpt>
					<trkpt lat="46.783090" lon="5.216940">
						<ele>195</ele>
						<time>2020-05-06T13:08:04Z</time>
					</trkpt>
					<trkpt lat="46.783060" lon="5.217160">
						<ele>195</ele>
						<time>2020-05-06T13:08:24Z</time>
					</trkpt>
					<trkpt lat="46.783340" lon="5.217430">
						<ele>195</ele>
						<time>2020-05-06T13:09:09Z</time>
					</trkpt>
					<trkpt lat="46.783610" lon="5.217770">
						<ele>194</ele>
						<time>2020-05-06T13:09:57Z</time>
					</trkpt>
					<trkpt lat="46.783960" lon="5.218280">
						<ele>194</ele>
						<time>2020-05-06T13:11:03Z</time>
					</trkpt>
					<trkpt lat="46.784230" lon="5.218600">
						<ele>194</ele>
						<time>2020-05-06T13:11:49Z</time>
					</trkpt>
					<trkpt lat="46.784540" lon="5.218780">
						<ele>194</ele>
						<time>2020-05-06T13:12:33Z</time>
					</trkpt>
					<trkpt lat="46.784960" lon="5.219110">
						<ele>195</ele>
						<time>2020-05-06T13:13:37Z</time>
					</trkpt>
					<trkpt lat="46.785210" lon="5.219320">
						<ele>195</ele>
						<time>2020-05-06T13:14:16Z</time>
					</trkpt>
					<trkpt lat="46.785570" lon="5.219870">
						<ele>195</ele>
						<time>2020-05-06T13:15:25Z</time>
					</trkpt>
					<trkpt lat="46.785770" lon="5.220080">
						<ele>195</ele>
						<time>2020-05-06T13:15:58Z</time>
					</trkpt>
					<trkpt lat="46.785590" lon="5.220660">
						<ele>195</ele>
						<time>2020-05-06T13:16:56Z</time>
					</trkpt>
					<trkpt lat="46.785500" lon="5.221340">
						<ele>194</ele>
						<time>2020-05-06T13:17:59Z</time>
					</trkpt>
					<trkpt lat="46.785620" lon="5.221820">
						<ele>193</ele>
						<time>2020-05-06T13:18:46Z</time>
					</trkpt>
					<trkpt lat="46.785870" lon="5.222540">
						<ele>192</ele>
						<time>2020-05-06T13:20:00Z</time>
					</trkpt>
					<trkpt lat="46.786200" lon="5.223080">
						<ele>191</ele>
						<time>2020-05-06T13:21:06Z</time>
					</trkpt>
					<trkpt lat="46.786290" lon="5.223400">
						<ele>191</ele>
						<time>2020-05-06T13:21:38Z</time>
					</trkpt>
					<trkpt lat="46.786300" lon="5.224380">
						<ele>190</ele>
						<time>2020-05-06T13:23:07Z</time>
					</trkpt>
					<trkpt lat="46.786350" lon="5.224920">
						<ele>189</ele>
						<time>2020-05-06T13:23:57Z</time>
					</trkpt>
					<trkpt lat="46.786490" lon="5.225820">
						<ele>191</ele>
						<time>2020-05-06T13:25:21Z</time>
					</trkpt>
					<trkpt lat="46.786610" lon="5.226000">
						<ele>191</ele>
						<time>2020-05-06T13:25:44Z</time>
					</trkpt>
					<trkpt lat="46.786970" lon="5.226170">
						<ele>191</ele>
						<time>2020-05-06T13:26:35Z</time>
					</trkpt>
					<trkpt lat="46.787680" lon="5.226310">
						<ele>190</ele>
						<time>2020-05-06T13:28:10Z</time>
					</trkpt>
					<trkpt lat="46.787860" lon="5.226450">
						<ele>190</ele>
						<time>2020-05-06T13:28:38Z</time>
					</trkpt>
					<trkpt lat="46.788050" lon="5.226640">
						<ele>190</ele>
						<time>2020-05-06T13:29:08Z</time>
					</trkpt>
					<trkpt lat="46.788180" lon="5.226880">
						<ele>190</ele>
						<time>2020-05-06T13:29:36Z</time>
					</trkpt>
					<trkpt lat="46.788390" lon="5.227130">
						<ele>189</ele>
						<time>2020-05-06T13:30:12Z</time>
					</trkpt>
					<trkpt lat="46.788870" lon="5.227310">
						<ele>191</ele>
						<time>2020-05-06T13:31:19Z</time>
					</trkpt>
					<trkpt lat="46.788990" lon="5.227470">
						<ele>191</ele>
						<time>2020-05-06T13:31:40Z</time>
					</trkpt>
					<trkpt lat="46.789070" lon="5.227810">
						<ele>192</ele>
						<time>2020-05-06T13:32:13Z</time>
					</trkpt>
					<trkpt lat="46.789130" lon="5.229090">
						<ele>192</ele>
						<time>2020-05-06T13:34:10Z</time>
					</trkpt>
					<trkpt lat="46.789200" lon="5.229780">
						<ele>193</ele>
						<time>2020-05-06T13:35:14Z</time>
					</trkpt>
					<trkpt lat="46.789300" lon="5.230210">
						<ele>194</ele>
						<time>2020-05-06T13:35:56Z</time>
					</trkpt>
					<trkpt lat="46.789400" lon="5.230500">
						<ele>194</ele>
						<time>2020-05-06T13:36:25Z</time>
					</trkpt>
					<trkpt lat="46.789590" lon="5.230610">
						<ele>194</ele>
						<time>2020-05-06T13:36:53Z</time>
					</trkpt>
					<trkpt lat="46.789740" lon="5.230790">
						<ele>193</ele>
						<time>2020-05-06T13:37:18Z</time>
					</trkpt>
					<trkpt lat="46.789760" lon="5.231120">
						<ele>193</ele>
						<time>2020-05-06T13:37:49Z</time>
					</trkpt>
					<trkpt lat="46.789590" lon="5.231490">
						<ele>193</ele>
						<time>2020-05-06T13:38:29Z</time>
					</trkpt>
					<trkpt lat="46.789310" lon="5.232930">
						<ele>194</ele>
						<time>2020-05-06T13:40:46Z</time>
					</trkpt>
					<trkpt lat="46.789080" lon="5.234050">
						<ele>193</ele>
						<time>2020-05-06T13:42:33Z</time>
					</trkpt>
					<trkpt lat="46.788980" lon="5.234170">
						<ele>193</ele>
						<time>2020-05-06T13:42:50Z</time>
					</trkpt>
					<trkpt lat="46.788870" lon="5.234250">
						<ele>193</ele>
						<time>2020-05-06T13:43:07Z</time>
					</trkpt>
					<trkpt lat="46.788760" lon="5.234220">
						<ele>193</ele>
						<time>2020-05-06T13:43:22Z</time>
					</trkpt>
					<trkpt lat="46.788110" lon="5.233950">
						<ele>195</ele>
						<time>2020-05-06T13:44:52Z</time>
					</trkpt>
					<trkpt lat="46.787960" lon="5.234080">
						<ele>195</ele>
						<time>2020-05-06T13:45:15Z</time>
					</trkpt>
					<trkpt lat="46.787770" lon="5.234730">
						<ele>194</ele>
						<time>2020-05-06T13:46:20Z</time>
					</trkpt>
					<trkpt lat="46.787580" lon="5.235170">
						<ele>194</ele>
						<time>2020-05-06T13:47:07Z</time>
					</trkpt>
					<trkpt lat="46.787460" lon="5.235630">
						<ele>193</ele>
						<time>2020-05-06T13:47:52Z</time>
					</trkpt>
					<trkpt lat="46.787210" lon="5.236160">
						<ele>193</ele>
						<time>2020-05-06T13:48:51Z</time>
					</trkpt>
					<trkpt lat="46.787160" lon="5.236610">
						<ele>193</ele>
						<time>2020-05-06T13:49:33Z</time>
					</trkpt>
					<trkpt lat="46.787110" lon="5.237070">
						<ele>193</ele>
						<time>2020-05-06T13:50:15Z</time>
					</trkpt>
					<trkpt lat="46.787150" lon="5.237390">
						<ele>193</ele>
						<time>2020-05-06T13:50:45Z</time>
					</trkpt>
					<trkpt lat="46.787260" lon="5.237850">
						<ele>193</ele>
						<time>2020-05-06T13:51:29Z</time>
					</trkpt>
					<trkpt lat="46.787390" lon="5.238530">
						<ele>193</ele>
						<time>2020-05-06T13:52:34Z</time>
					</trkpt>
					<trkpt lat="46.787460" lon="5.239180">
						<ele>194</ele>
						<time>2020-05-06T13:53:34Z</time>
					</trkpt>
					<trkpt lat="46.787410" lon="5.239570">
						<ele>194</ele>
						<time>2020-05-06T13:54:10Z</time>
					</trkpt>
					<trkpt lat="46.787300" lon="5.240070">
						<ele>194</ele>
						<time>2020-05-06T13:54:58Z</time>
					</trkpt>
					<trkpt lat="46.786980" lon="5.241220">
						<ele>193</ele>
						<time>2020-05-06T13:56:52Z</time>
					</trkpt>
					<trkpt lat="46.786870" lon="5.241590">
						<ele>194</ele>
						<time>2020-05-06T13:57:29Z</time>
					</trkpt>
					<trkpt lat="46.786720" lon="5.242260">
						<ele>193</ele>
						<time>2020-05-06T13:58:33Z</time>
					</trkpt>
					<trkpt lat="46.786510" lon="5.243010">
						<ele>194</ele>
						<time>2020-05-06T13:59:47Z</time>
					</trkpt>
					<trkpt lat="46.786380" lon="5.244390">
						<ele>194</ele>
						<time>2020-05-06T14:01:54Z</time>
					</trkpt>
					<trkpt lat="46.786370" lon="5.244960">
						<ele>193</ele>
						<time>2020-05-06T14:02:46Z</time>
					</trkpt>
					<trkpt lat="46.786400" lon="5.245260">
						<ele>193</ele>
						<time>2020-05-06T14:03:14Z</time>
					</trkpt>
					<trkpt lat="46.786630" lon="5.245870">
						<ele>194</ele>
						<time>2020-05-06T14:04:18Z</time>
					</trkpt>
					<trkpt lat="46.787170" lon="5.247010">
						<ele>194</ele>
						<time>2020-05-06T14:06:24Z</time>
					</trkpt>
					<trkpt lat="46.787320" lon="5.247330">
						<ele>194</ele>
						<time>2020-05-06T14:07:00Z</time>
					</trkpt>
					<trkpt lat="46.787380" lon="5.247650">
						<ele>194</ele>
						<time>2020-05-06T14:07:30Z</time>
					</trkpt>
					<trkpt lat="46.787300" lon="5.248270">
						<ele>196</ele>
						<time>2020-05-06T14:08:28Z</time>
					</trkpt>
					<trkpt lat="46.787290" lon="5.248590">
						<ele>196</ele>
						<time>2020-05-06T14:08:57Z</time>
					</trkpt>
					<trkpt lat="46.786720" lon="5.248960">
						<ele>196</ele>
						<time>2020-05-06T14:10:20Z</time>
					</trkpt>
					<trkpt lat="46.786410" lon="5.249650">
						<ele>196</ele>
						<time>2020-05-06T14:11:36Z</time>
					</trkpt>
					<trkpt lat="46.786260" lon="5.250480">
						<ele>196</ele>
						<time>2020-05-06T14:12:54Z</time>
					</trkpt>
					<trkpt lat="46.786000" lon="5.250570">
						<ele>196</ele>
						<time>2020-05-06T14:13:30Z</time>
					</trkpt>
					<trkpt lat="46.785530" lon="5.250210">
						<ele>196</ele>
						<time>2020-05-06T14:14:41Z</time>
					</trkpt>
					<trkpt lat="46.784760" lon="5.249320">
						<ele>197</ele>
						<time>2020-05-06T14:16:52Z</time>
					</trkpt>
					<trkpt lat="46.784340" lon="5.248880">
						<ele>197</ele>
						<time>2020-05-06T14:18:01Z</time>
					</trkpt>
					<trkpt lat="46.783980" lon="5.248620">
						<ele>196</ele>
						<time>2020-05-06T14:18:54Z</time>
					</trkpt>
					<trkpt lat="46.783900" lon="5.248630">
						<ele>196</ele>
						<time>2020-05-06T14:19:05Z</time>
					</trkpt>
					<trkpt lat="46.783810" lon="5.248720">
						<ele>196</ele>
						<time>2020-05-06T14:19:20Z</time>
					</trkpt>
					<trkpt lat="46.783660" lon="5.249080">
						<ele>196</ele>
						<time>2020-05-06T14:19:58Z</time>
					</trkpt>
					<trkpt lat="46.783640" lon="5.249240">
						<ele>196</ele>
						<time>2020-05-06T14:20:13Z</time>
					</trkpt>
					<trkpt lat="46.783650" lon="5.249420">
						<ele>196</ele>
						<time>2020-05-06T14:20:29Z</time>
					</trkpt>
					<trkpt lat="46.783700" lon="5.249910">
						<ele>196</ele>
						<time>2020-05-06T14:21:15Z</time>
					</trkpt>
					<trkpt lat="46.783680" lon="5.250090">
						<ele>196</ele>
						<time>2020-05-06T14:21:31Z</time>
					</trkpt>
					<trkpt lat="46.783640" lon="5.250320">
						<ele>196</ele>
						<time>2020-05-06T14:21:53Z</time>
					</trkpt>
					<trkpt lat="46.783460" lon="5.250770">
						<ele>196</ele>
						<time>2020-05-06T14:22:41Z</time>
					</trkpt>
					<trkpt lat="46.783400" lon="5.250960">
						<ele>196</ele>
						<time>2020-05-06T14:23:00Z</time>
					</trkpt>
					<trkpt lat="46.783090" lon="5.252320">
						<ele>197</ele>
						<time>2020-05-06T14:25:11Z</time>
					</trkpt>
					<trkpt lat="46.783030" lon="5.252510">
						<ele>197</ele>
						<time>2020-05-06T14:25:30Z</time>
					</trkpt>
					<trkpt lat="46.782960" lon="5.252640">
						<ele>197</ele>
						<time>2020-05-06T14:25:45Z</time>
					</trkpt>
					<trkpt lat="46.782300" lon="5.253510">
						<ele>196</ele>
						<time>2020-05-06T14:27:44Z</time>
					</trkpt>
					<trkpt lat="46.782190" lon="5.253620">
						<ele>196</ele>
						<time>2020-05-06T14:28:01Z</time>
					</trkpt>
					<trkpt lat="46.782110" lon="5.253650">
						<ele>196</ele>
						<time>2020-05-06T14:28:12Z</time>
					</trkpt>
					<trkpt lat="46.781970" lon="5.253430">
						<ele>197</ele>
						<time>2020-05-06T14:28:40Z</time>
					</trkpt>
					<trkpt lat="46.781590" lon="5.252950">
						<ele>198</ele>
						<time>2020-05-06T14:29:47Z</time>
					</trkpt>
					<trkpt lat="46.781250" lon="5.252470">
						<ele>198</ele>
						<time>2020-05-06T14:30:50Z</time>
					</trkpt>
					<trkpt lat="46.781070" lon="5.252240">
						<ele>197</ele>
						<time>2020-05-06T14:31:22Z</time>
					</trkpt>
					<trkpt lat="46.780940" lon="5.252130">
						<ele>197</ele>
						<time>2020-05-06T14:31:42Z</time>
					</trkpt>
					<trkpt lat="46.780710" lon="5.252060">
						<ele>197</ele>
						<time>2020-05-06T14:32:13Z</time>
					</trkpt>
					<trkpt lat="46.780710" lon="5.251820">
						<ele>197</ele>
						<time>2020-05-06T14:32:35Z</time>
					</trkpt>
					<trkpt lat="46.780540" lon="5.251090">
						<ele>196</ele>
						<time>2020-05-06T14:33:46Z</time>
					</trkpt>
					<trkpt lat="46.780110" lon="5.249390">
						<ele>196</ele>
						<time>2020-05-06T14:36:31Z</time>
					</trkpt>
					<trkpt lat="46.780050" lon="5.249160">
						<ele>196</ele>
						<time>2020-05-06T14:36:54Z</time>
					</trkpt>
					<trkpt lat="46.779570" lon="5.247390">
						<ele>197</ele>
						<time>2020-05-06T14:39:48Z</time>
					</trkpt>
					<trkpt lat="46.779180" lon="5.245980">
						<ele>197</ele>
						<time>2020-05-06T14:42:07Z</time>
					</trkpt>
					<trkpt lat="46.779040" lon="5.245450">
						<ele>197</ele>
						<time>2020-05-06T14:42:59Z</time>
					</trkpt>
					<trkpt lat="46.779030" lon="5.245370">
						<ele>197</ele>
						<time>2020-05-06T14:43:06Z</time>
					</trkpt>
					<trkpt lat="46.778960" lon="5.245390">
						<ele>197</ele>
						<time>2020-05-06T14:43:16Z</time>
					</trkpt>
					<trkpt lat="46.778880" lon="5.245370">
						<ele>197</ele>
						<time>2020-05-06T14:43:26Z</time>
					</trkpt>
					<trkpt lat="46.778680" lon="5.245210">
						<ele>197</ele>
						<time>2020-05-06T14:43:57Z</time>
					</trkpt>
					<trkpt lat="46.778050" lon="5.244600">
						<ele>197</ele>
						<time>2020-05-06T14:45:38Z</time>
					</trkpt>
					<trkpt lat="46.778000" lon="5.244500">
						<ele>197</ele>
						<time>2020-05-06T14:45:49Z</time>
					</trkpt>
					<trkpt lat="46.777990" lon="5.244400">
						<ele>197</ele>
						<time>2020-05-06T14:45:58Z</time>
					</trkpt>
					<trkpt lat="46.778000" lon="5.244160">
						<ele>197</ele>
						<time>2020-05-06T14:46:20Z</time>
					</trkpt>
					<trkpt lat="46.777990" lon="5.244010">
						<ele>197</ele>
						<time>2020-05-06T14:46:34Z</time>
					</trkpt>
					<trkpt lat="46.777950" lon="5.243810">
						<ele>196</ele>
						<time>2020-05-06T14:46:53Z</time>
					</trkpt>
					<trkpt lat="46.777790" lon="5.243370">
						<ele>195</ele>
						<time>2020-05-06T14:47:39Z</time>
					</trkpt>
					<trkpt lat="46.777690" lon="5.243170">
						<ele>195</ele>
						<time>2020-05-06T14:48:01Z</time>
					</trkpt>
					<trkpt lat="46.777580" lon="5.243030">
						<ele>195</ele>
						<time>2020-05-06T14:48:21Z</time>
					</trkpt>
					<trkpt lat="46.777060" lon="5.242810">
						<ele>196</ele>
						<time>2020-05-06T14:49:33Z</time>
					</trkpt>
					<trkpt lat="46.776390" lon="5.242420">
						<ele>196</ele>
						<time>2020-05-06T14:51:09Z</time>
					</trkpt>
					<trkpt lat="46.776090" lon="5.242250">
						<ele>195</ele>
						<time>2020-05-06T14:51:52Z</time>
					</trkpt>
					<trkpt lat="46.775780" lon="5.241960">
						<ele>195</ele>
						<time>2020-05-06T14:52:41Z</time>
					</trkpt>
					<trkpt lat="46.775160" lon="5.241320">
						<ele>193</ele>
						<time>2020-05-06T14:54:23Z</time>
					</trkpt>
					<trkpt lat="46.774980" lon="5.241080">
						<ele>192</ele>
						<time>2020-05-06T14:54:55Z</time>
					</trkpt>
					<trkpt lat="46.774520" lon="5.240580">
						<ele>192</ele>
						<time>2020-05-06T14:56:12Z</time>
					</trkpt>
					<trkpt lat="46.774410" lon="5.240420">
						<ele>193</ele>
						<time>2020-05-06T14:56:32Z</time>
					</trkpt>
					<trkpt lat="46.774370" lon="5.240230">
						<ele>193</ele>
						<time>2020-05-06T14:56:51Z</time>
					</trkpt>
					<trkpt lat="46.774320" lon="5.239960">
						<ele>193</ele>
						<time>2020-05-06T14:57:16Z</time>
					</trkpt>
					<trkpt lat="46.774260" lon="5.239730">
						<ele>194</ele>
						<time>2020-05-06T14:57:39Z</time>
					</trkpt>
					<trkpt lat="46.774130" lon="5.239580">
						<ele>194</ele>
						<time>2020-05-06T14:58:01Z</time>
					</trkpt>
					<trkpt lat="46.773610" lon="5.239190">
						<ele>195</ele>
						<time>2020-05-06T14:59:19Z</time>
					</trkpt>
					<trkpt lat="46.773340" lon="5.239060">
						<ele>196</ele>
						<time>2020-05-06T14:59:57Z</time>
					</trkpt>
					<trkpt lat="46.772440" lon="5.238470">
						<ele>197</ele>
						<time>2020-05-06T15:02:08Z</time>
					</trkpt>
					<trkpt lat="46.772510" lon="5.238290">
						<ele>197</ele>
						<time>2020-05-06T15:02:27Z</time>
					</trkpt>
					<trkpt lat="46.772780" lon="5.237780">
						<ele>195</ele>
						<time>2020-05-06T15:03:26Z</time>
					</trkpt>
					<trkpt lat="46.773080" lon="5.237280">
						<ele>194</ele>
						<time>2020-05-06T15:04:27Z</time>
					</trkpt>
					<trkpt lat="46.773550" lon="5.236500">
						<ele>195</ele>
						<time>2020-05-06T15:06:02Z</time>
					</trkpt>
					<trkpt lat="46.773740" lon="5.236160">
						<ele>196</ele>
						<time>2020-05-06T15:06:42Z</time>
					</trkpt>
					<trkpt lat="46.774250" lon="5.234630">
						<ele>196</ele>
						<time>2020-05-06T15:09:18Z</time>
					</trkpt>
					<trkpt lat="46.774670" lon="5.233550">
						<ele>196</ele>
						<time>2020-05-06T15:11:11Z</time>
					</trkpt>
					<trkpt lat="46.774720" lon="5.233320">
						<ele>196</ele>
						<time>2020-05-06T15:11:33Z</time>
					</trkpt>
					<trkpt lat="46.774900" lon="5.232120">
						<ele>197</ele>
						<time>2020-05-06T15:13:25Z</time>
					</trkpt>
					<trkpt lat="46.774970" lon="5.231600">
						<ele>197</ele>
						<time>2020-05-06T15:14:14Z</time>
					</trkpt>
					<trkpt lat="46.774990" lon="5.231500">
						<ele>197</ele>
						<time>2020-05-06T15:14:23Z</time>
					</trkpt>
					<trkpt lat="46.775010" lon="5.231390">
						<ele>196</ele>
						<time>2020-05-06T15:14:34Z</time>
					</trkpt>
					<trkpt lat="46.775130" lon="5.230780">
						<ele>195</ele>
						<time>2020-05-06T15:15:32Z</time>
					</trkpt>
					<trkpt lat="46.775150" lon="5.230380">
						<ele>194</ele>
						<time>2020-05-06T15:16:08Z</time>
					</trkpt>
					<trkpt lat="46.775140" lon="5.229990">
						<ele>194</ele>
						<time>2020-05-06T15:16:44Z</time>
					</trkpt>
					<trkpt lat="46.775050" lon="5.229540">
						<ele>194</ele>
						<time>2020-05-06T15:17:27Z</time>
					</trkpt>
					<trkpt lat="46.775040" lon="5.229360">
						<ele>195</ele>
						<time>2020-05-06T15:17:43Z</time>
					</trkpt>
					<trkpt lat="46.775070" lon="5.229110">
						<ele>195</ele>
						<time>2020-05-06T15:18:07Z</time>
					</trkpt>
					<trkpt lat="46.775120" lon="5.228810">
						<ele>195</ele>
						<time>2020-05-06T15:18:35Z</time>
					</trkpt>
					<trkpt lat="46.775130" lon="5.228750">
						<ele>195</ele>
						<time>2020-05-06T15:18:40Z</time>
					</trkpt>
					<trkpt lat="46.775220" lon="5.228680">
						<ele>195</ele>
						<time>2020-05-06T15:18:54Z</time>
					</trkpt>
					<trkpt lat="46.775330" lon="5.228630">
						<ele>195</ele>
						<time>2020-05-06T15:19:09Z</time>
					</trkpt>
					<trkpt lat="46.775680" lon="5.228560">
						<ele>194</ele>
						<time>2020-05-06T15:19:57Z</time>
					</trkpt>
					<trkpt lat="46.775750" lon="5.228510">
						<ele>194</ele>
						<time>2020-05-06T15:20:07Z</time>
					</trkpt>
					<trkpt lat="46.775810" lon="5.228430">
						<ele>194</ele>
						<time>2020-05-06T15:20:18Z</time>
					</trkpt>
					<trkpt lat="46.776180" lon="5.227770">
						<ele>194</ele>
						<time>2020-05-06T15:21:36Z</time>
					</trkpt>
					<trkpt lat="46.776230" lon="5.227590">
						<ele>194</ele>
						<time>2020-05-06T15:21:54Z</time>
					</trkpt>
					<trkpt lat="46.776240" lon="5.227460">
						<ele>195</ele>
						<time>2020-05-06T15:22:05Z</time>
					</trkpt>
					<trkpt lat="46.776180" lon="5.227280">
						<ele>195</ele>
						<time>2020-05-06T15:22:24Z</time>
					</trkpt>
					<trkpt lat="46.776150" lon="5.227110">
						<ele>195</ele>
						<time>2020-05-06T15:22:40Z</time>
					</trkpt>
					<trkpt lat="46.776110" lon="5.226900">
						<ele>196</ele>
						<time>2020-05-06T15:23:00Z</time>
					</trkpt>
					<trkpt lat="46.776110" lon="5.226650">
						<ele>196</ele>
						<time>2020-05-06T15:23:23Z</time>
					</trkpt>
					<trkpt lat="46.776150" lon="5.226340">
						<ele>196</ele>
						<time>2020-05-06T15:23:51Z</time>
					</trkpt>
					<trkpt lat="46.776270" lon="5.225800">
						<ele>195</ele>
						<time>2020-05-06T15:24:43Z</time>
					</trkpt>
					<trkpt lat="46.776440" lon="5.224960">
						<ele>195</ele>
						<time>2020-05-06T15:26:03Z</time>
					</trkpt>
					<trkpt lat="46.776650" lon="5.223860">
						<ele>194</ele>
						<time>2020-05-06T15:27:48Z</time>
					</trkpt>
					<trkpt lat="46.776720" lon="5.223560">
						<ele>194</ele>
						<time>2020-05-06T15:28:17Z</time>
					</trkpt>
					<trkpt lat="46.776760" lon="5.223400">
						<ele>194</ele>
						<time>2020-05-06T15:28:32Z</time>
					</trkpt>
					<trkpt lat="46.776810" lon="5.223260">
						<ele>194</ele>
						<time>2020-05-06T15:28:47Z</time>
					</trkpt>
					<trkpt lat="46.776850" lon="5.223210">
						<ele>194</ele>
						<time>2020-05-06T15:28:54Z</time>
					</trkpt>
					<trkpt lat="46.777000" lon="5.222950">
						<ele>193</ele>
						<time>2020-05-06T15:29:25Z</time>
					</trkpt>
					<trkpt lat="46.777270" lon="5.222570">
						<ele>192</ele>
						<time>2020-05-06T15:30:15Z</time>
					</trkpt>
					<trkpt lat="46.777380" lon="5.222380">
						<ele>192</ele>
						<time>2020-05-06T15:30:38Z</time>
					</trkpt>
					<trkpt lat="46.777490" lon="5.222060">
						<ele>191</ele>
						<time>2020-05-06T15:31:10Z</time>
					</trkpt>
					<trkpt lat="46.777600" lon="5.221860">
						<ele>191</ele>
						<time>2020-05-06T15:31:34Z</time>
					</trkpt>
					<trkpt lat="46.777750" lon="5.221750">
						<ele>190</ele>
						<time>2020-05-06T15:31:56Z</time>
					</trkpt>
					<trkpt lat="46.778020" lon="5.221630">
						<ele>189</ele>
						<time>2020-05-06T15:32:34Z</time>
					</trkpt>
					<trkpt lat="46.778150" lon="5.221510">
						<ele>189</ele>
						<time>2020-05-06T15:32:54Z</time>
					</trkpt>
					<trkpt lat="46.778250" lon="5.221360">
						<ele>189</ele>
						<time>2020-05-06T15:33:13Z</time>
					</trkpt>
					<trkpt lat="46.778680" lon="5.220600">
						<ele>189</ele>
						<time>2020-05-06T15:34:44Z</time>
					</trkpt>
					<trkpt lat="46.778820" lon="5.220480">
						<ele>189</ele>
						<time>2020-05-06T15:35:05Z</time>
					</trkpt>
					<trkpt lat="46.779430" lon="5.220170">
						<ele>190</ele>
						<time>2020-05-06T15:36:31Z</time>
					</trkpt>
					<trkpt lat="46.780090" lon="5.219860">
						<ele>192</ele>
						<time>2020-05-06T15:38:04Z</time>
					</trkpt>
					<trkpt lat="46.780340" lon="5.219660">
						<ele>192</ele>
						<time>2020-05-06T15:38:42Z</time>
					</trkpt>
					<trkpt lat="46.780470" lon="5.219510">
						<ele>192</ele>
						<time>2020-05-06T15:39:04Z</time>
					</trkpt>
					<trkpt lat="46.781200" lon="5.218460">
						<ele>191</ele>
						<time>2020-05-06T15:41:21Z</time>
					</trkpt>
					<trkpt lat="46.781810" lon="5.217560">
						<ele>192</ele>
						<time>2020-05-06T15:43:16Z</time>
					</trkpt>
					<trkpt lat="46.781930" lon="5.217410">
						<ele>193</ele>
						<time>2020-05-06T15:43:38Z</time>
					</trkpt>
					<trkpt lat="46.782780" lon="5.216130">
						<ele>196</ele>
						<time>2020-05-06T15:46:21Z</time>
					</trkpt>
					<trkpt lat="46.782900" lon="5.215960">
						<ele>196</ele>
						<time>2020-05-06T15:46:43Z</time>
					</trkpt>
					<trkpt lat="46.782970" lon="5.215830">
						<ele>197</ele>
						<time>2020-05-06T15:46:58Z</time>
					</trkpt>
					<trkpt lat="46.783220" lon="5.215350">
						<ele>196</ele>
						<time>2020-05-06T15:47:53Z</time>
					</trkpt>
					</trkseg>
				</trk>
			</gpx>